sensor_id;sensor_type;location;lat;lon;timestamp;P1;durP1;ratioP1;P2;durP2;ratioP2
6642;SDS011;3357;48.050;7.800;2023-04-03T00:02:23;2.27;;;2.17;;
6642;SDS011;3357;48.050;7.800;2023-04-03T00:04:48;1.90;;;1.80;;
6642;SDS011;3357;48.050;7.800;2023-04-03T00:07:14;2.50;;;2.40;;
6642;SDS011;3357;48.050;7.800;2023-04-03T00:09:39;1.77;;;1.67;;
6642;SDS011;3357;48.050;7.800;2023-04-03T00:12:05;2.10;;;2.00;;
6642;SDS011;3357;48.050;7.800;2023-04-03T00:14:30;2.70;;;2.20;;
6642;SDS011;3357;48.050;7.800;2023-04-03T00:16:55;4.20;;;2.37;;
6642;SDS011;3357;48.050;7.800;2023-04-03T00:19:21;2.63;;;1.93;;
6642;SDS011;3357;48.050;7.800;2023-04-03T00:21:46;1.83;;;1.73;;
6642;SDS011;3357;48.050;7.800;2023-04-03T00:24:11;2.07;;;1.97;;
6642;SDS011;3357;48.050;7.800;2023-04-03T00:26:36;2.20;;;2.10;;
6642;SDS011;3357;48.050;7.800;2023-04-03T00:29:02;2.30;;;2.10;;
6642;SDS011;3357;48.050;7.800;2023-04-03T00:31:27;2.70;;;2.20;;
6642;SDS011;3357;48.050;7.800;2023-04-03T00:33:52;2.30;;;2.10;;
6642;SDS011;3357;48.050;7.800;2023-04-03T00:36:17;2.10;;;2.00;;
6642;SDS011;3357;48.050;7.800;2023-04-03T00:38:43;1.97;;;1.87;;
6642;SDS011;3357;48.050;7.800;2023-04-03T00:41:08;1.97;;;1.87;;
6642;SDS011;3357;48.050;7.800;2023-04-03T00:43:33;2.00;;;1.90;;
6642;SDS011;3357;48.050;7.800;2023-04-03T00:45:59;2.10;;;2.00;;
6642;SDS011;3357;48.050;7.800;2023-04-03T00:48:27;1.53;;;1.43;;
6642;SDS011;3357;48.050;7.800;2023-04-03T00:50:52;1.90;;;1.80;;
6642;SDS011;3357;48.050;7.800;2023-04-03T00:53:19;2.27;;;2.17;;
6642;SDS011;3357;48.050;7.800;2023-04-03T00:55:48;2.27;;;1.97;;
6642;SDS011;3357;48.050;7.800;2023-04-03T00:58:15;2.07;;;1.97;;
6642;SDS011;3357;48.050;7.800;2023-04-03T01:00:42;2.80;;;2.40;;
6642;SDS011;3357;48.050;7.800;2023-04-03T01:03:10;1.80;;;1.70;;
6642;SDS011;3357;48.050;7.800;2023-04-03T01:05:35;2.37;;;2.07;;
6642;SDS011;3357;48.050;7.800;2023-04-03T01:08:00;2.00;;;1.80;;
6642;SDS011;3357;48.050;7.800;2023-04-03T01:10:26;2.50;;;2.20;;
6642;SDS011;3357;48.050;7.800;2023-04-03T01:12:51;2.20;;;2.10;;
6642;SDS011;3357;48.050;7.800;2023-04-03T01:15:18;16.50;;;2.20;;
6642;SDS011;3357;48.050;7.800;2023-04-03T01:28:15;1.87;;;1.70;;
6642;SDS011;3357;48.050;7.800;2023-04-03T01:30:44;2.17;;;1.77;;
6642;SDS011;3357;48.050;7.800;2023-04-03T01:33:11;1.87;;;1.77;;
6642;SDS011;3357;48.050;7.800;2023-04-03T01:35:37;1.70;;;1.60;;
6642;SDS011;3357;48.050;7.800;2023-04-03T01:38:02;1.80;;;1.70;;
6642;SDS011;3357;48.050;7.800;2023-04-03T01:40:28;1.97;;;1.77;;
6642;SDS011;3357;48.050;7.800;2023-04-03T01:42:53;1.50;;;1.40;;
6642;SDS011;3357;48.050;7.800;2023-04-03T01:45:18;1.63;;;1.53;;
6642;SDS011;3357;48.050;7.800;2023-04-03T01:47:43;1.97;;;1.57;;
6642;SDS011;3357;48.050;7.800;2023-04-03T01:50:09;1.60;;;1.50;;
6642;SDS011;3357;48.050;7.800;2023-04-03T01:52:34;2.23;;;2.10;;
6642;SDS011;3357;48.050;7.800;2023-04-03T01:54:59;3.67;;;1.70;;
6642;SDS011;3357;48.050;7.800;2023-04-03T01:57:25;1.90;;;1.67;;
6642;SDS011;3357;48.050;7.800;2023-04-03T01:59:50;3.77;;;1.90;;
6642;SDS011;3357;48.050;7.800;2023-04-03T02:02:16;1.70;;;1.60;;
6642;SDS011;3357;48.050;7.800;2023-04-03T02:04:41;2.10;;;2.00;;
6642;SDS011;3357;48.050;7.800;2023-04-03T02:07:07;2.33;;;1.87;;
6642;SDS011;3357;48.050;7.800;2023-04-03T02:09:32;1.90;;;1.80;;
6642;SDS011;3357;48.050;7.800;2023-04-03T02:11:57;1.70;;;1.60;;
6642;SDS011;3357;48.050;7.800;2023-04-03T02:14:22;1.83;;;1.73;;
6642;SDS011;3357;48.050;7.800;2023-04-03T02:16:48;1.90;;;1.80;;
6642;SDS011;3357;48.050;7.800;2023-04-03T02:19:14;1.87;;;1.77;;
6642;SDS011;3357;48.050;7.800;2023-04-03T02:21:39;2.63;;;2.10;;
6642;SDS011;3357;48.050;7.800;2023-04-03T02:24:04;2.73;;;2.00;;
6642;SDS011;3357;48.050;7.800;2023-04-03T02:26:30;2.20;;;2.03;;
6642;SDS011;3357;48.050;7.800;2023-04-03T02:28:55;4.40;;;1.80;;
6642;SDS011;3357;48.050;7.800;2023-04-03T02:31:20;2.17;;;1.80;;
6642;SDS011;3357;48.050;7.800;2023-04-03T02:33:46;1.80;;;1.70;;
6642;SDS011;3357;48.050;7.800;2023-04-03T02:36:11;2.27;;;2.00;;
6642;SDS011;3357;48.050;7.800;2023-04-03T02:38:36;2.03;;;1.87;;
6642;SDS011;3357;48.050;7.800;2023-04-03T02:41:02;1.80;;;1.70;;
6642;SDS011;3357;48.050;7.800;2023-04-03T02:43:31;1.70;;;1.60;;
6642;SDS011;3357;48.050;7.800;2023-04-03T02:45:57;1.63;;;1.57;;
6642;SDS011;3357;48.050;7.800;2023-04-03T02:48:22;2.83;;;2.20;;
6642;SDS011;3357;48.050;7.800;2023-04-03T02:50:48;2.20;;;2.10;;
6642;SDS011;3357;48.050;7.800;2023-04-03T02:53:13;2.20;;;1.83;;
6642;SDS011;3357;48.050;7.800;2023-04-03T02:55:38;1.87;;;1.73;;
6642;SDS011;3357;48.050;7.800;2023-04-03T02:58:04;6.57;;;1.60;;
6642;SDS011;3357;48.050;7.800;2023-04-03T03:00:29;3.20;;;1.60;;
6642;SDS011;3357;48.050;7.800;2023-04-03T03:02:55;2.80;;;2.20;;
6642;SDS011;3357;48.050;7.800;2023-04-03T03:05:20;3.13;;;2.07;;
6642;SDS011;3357;48.050;7.800;2023-04-03T03:07:46;2.37;;;2.00;;
6642;SDS011;3357;48.050;7.800;2023-04-03T03:10:11;1.87;;;1.77;;
6642;SDS011;3357;48.050;7.800;2023-04-03T03:12:36;2.10;;;1.90;;
6642;SDS011;3357;48.050;7.800;2023-04-03T03:15:02;1.90;;;1.80;;
6642;SDS011;3357;48.050;7.800;2023-04-03T03:17:27;2.80;;;1.80;;
6642;SDS011;3357;48.050;7.800;2023-04-03T03:19:52;3.30;;;1.60;;
6642;SDS011;3357;48.050;7.800;2023-04-03T03:22:18;6.00;;;1.60;;
6642;SDS011;3357;48.050;7.800;2023-04-03T03:24:43;2.07;;;1.90;;
6642;SDS011;3357;48.050;7.800;2023-04-03T03:27:08;2.53;;;1.80;;
6642;SDS011;3357;48.050;7.800;2023-04-03T03:29:33;2.43;;;1.80;;
6642;SDS011;3357;48.050;7.800;2023-04-03T03:31:59;1.70;;;1.60;;
6642;SDS011;3357;48.050;7.800;2023-04-03T03:34:24;2.77;;;1.77;;
6642;SDS011;3357;48.050;7.800;2023-04-03T03:36:50;1.90;;;1.80;;
6642;SDS011;3357;48.050;7.800;2023-04-03T03:39:15;2.40;;;1.50;;
6642;SDS011;3357;48.050;7.800;2023-04-03T03:41:40;1.63;;;1.53;;
6642;SDS011;3357;48.050;7.800;2023-04-03T03:44:05;2.87;;;1.60;;
6642;SDS011;3357;48.050;7.800;2023-04-03T03:46:31;1.67;;;1.57;;
6642;SDS011;3357;48.050;7.800;2023-04-03T03:48:56;2.20;;;2.00;;
6642;SDS011;3357;48.050;7.800;2023-04-03T03:51:21;3.90;;;2.07;;
6642;SDS011;3357;48.050;7.800;2023-04-03T03:53:46;1.73;;;1.60;;
6642;SDS011;3357;48.050;7.800;2023-04-03T03:56:12;3.07;;;1.50;;
6642;SDS011;3357;48.050;7.800;2023-04-03T03:58:37;2.87;;;1.60;;
6642;SDS011;3357;48.050;7.800;2023-04-03T04:01:02;1.90;;;1.60;;
6642;SDS011;3357;48.050;7.800;2023-04-03T04:03:28;1.93;;;1.40;;
6642;SDS011;3357;48.050;7.800;2023-04-03T04:05:54;1.90;;;1.80;;
6642;SDS011;3357;48.050;7.800;2023-04-03T04:08:19;1.60;;;1.50;;
6642;SDS011;3357;48.050;7.800;2023-04-03T04:10:45;1.60;;;1.50;;
6642;SDS011;3357;48.050;7.800;2023-04-03T04:13:10;1.73;;;1.60;;
6642;SDS011;3357;48.050;7.800;2023-04-03T04:15:35;2.37;;;1.57;;
6642;SDS011;3357;48.050;7.800;2023-04-03T04:18:00;1.60;;;1.50;;
6642;SDS011;3357;48.050;7.800;2023-04-03T04:20:26;3.40;;;2.00;;
6642;SDS011;3357;48.050;7.800;2023-04-03T04:22:51;2.47;;;2.27;;
6642;SDS011;3357;48.050;7.800;2023-04-03T04:25:16;2.60;;;2.13;;
6642;SDS011;3357;48.050;7.800;2023-04-03T04:27:41;3.20;;;1.80;;
6642;SDS011;3357;48.050;7.800;2023-04-03T04:30:07;2.93;;;2.73;;
6642;SDS011;3357;48.050;7.800;2023-04-03T04:32:33;3.27;;;3.00;;
6642;SDS011;3357;48.050;7.800;2023-04-03T04:34:58;4.47;;;2.60;;
6642;SDS011;3357;48.050;7.800;2023-04-03T04:37:24;6.10;;;5.00;;
6642;SDS011;3357;48.050;7.800;2023-04-03T04:39:49;5.63;;;2.97;;
6642;SDS011;3357;48.050;7.800;2023-04-03T04:42:14;2.43;;;2.33;;
6642;SDS011;3357;48.050;7.800;2023-04-03T04:44:40;1.80;;;1.70;;
6642;SDS011;3357;48.050;7.800;2023-04-03T04:47:05;2.57;;;2.37;;
6642;SDS011;3357;48.050;7.800;2023-04-03T04:49:30;2.07;;;1.87;;
6642;SDS011;3357;48.050;7.800;2023-04-03T04:51:55;2.07;;;1.93;;
6642;SDS011;3357;48.050;7.800;2023-04-03T04:54:21;1.60;;;1.50;;
6642;SDS011;3357;48.050;7.800;2023-04-03T04:56:46;1.97;;;1.87;;
6642;SDS011;3357;48.050;7.800;2023-04-03T04:59:11;2.23;;;2.00;;
6642;SDS011;3357;48.050;7.800;2023-04-03T05:01:37;2.30;;;2.13;;
6642;SDS011;3357;48.050;7.800;2023-04-03T05:04:02;1.90;;;1.80;;
6642;SDS011;3357;48.050;7.800;2023-04-03T05:06:27;2.00;;;1.90;;
6642;SDS011;3357;48.050;7.800;2023-04-03T05:08:55;3.10;;;2.33;;
6642;SDS011;3357;48.050;7.800;2023-04-03T05:11:20;3.80;;;2.00;;
6642;SDS011;3357;48.050;7.800;2023-04-03T05:13:45;3.63;;;2.00;;
6642;SDS011;3357;48.050;7.800;2023-04-03T05:16:10;3.33;;;2.13;;
6642;SDS011;3357;48.050;7.800;2023-04-03T05:18:36;2.30;;;2.10;;
6642;SDS011;3357;48.050;7.800;2023-04-03T05:21:01;2.67;;;2.47;;
6642;SDS011;3357;48.050;7.800;2023-04-03T05:23:26;1.70;;;1.60;;
6642;SDS011;3357;48.050;7.800;2023-04-03T05:25:52;2.57;;;2.10;;
6642;SDS011;3357;48.050;7.800;2023-04-03T05:28:18;1.87;;;1.73;;
6642;SDS011;3357;48.050;7.800;2023-04-03T05:30:43;2.03;;;1.93;;
6642;SDS011;3357;48.050;7.800;2023-04-03T05:33:08;1.97;;;1.87;;
6642;SDS011;3357;48.050;7.800;2023-04-03T05:35:35;2.10;;;1.93;;
6642;SDS011;3357;48.050;7.800;2023-04-03T05:38:03;2.50;;;2.40;;
6642;SDS011;3357;48.050;7.800;2023-04-03T05:40:29;4.37;;;1.93;;
6642;SDS011;3357;48.050;7.800;2023-04-03T05:42:54;2.80;;;2.07;;
6642;SDS011;3357;48.050;7.800;2023-04-03T05:45:19;2.53;;;2.33;;
6642;SDS011;3357;48.050;7.800;2023-04-03T05:47:45;2.40;;;1.97;;
6642;SDS011;3357;48.050;7.800;2023-04-03T05:50:10;3.53;;;2.23;;
6642;SDS011;3357;48.050;7.800;2023-04-03T05:52:36;3.10;;;1.90;;
6642;SDS011;3357;48.050;7.800;2023-04-03T05:55:03;1.90;;;1.80;;
6642;SDS011;3357;48.050;7.800;2023-04-03T05:57:29;3.70;;;2.30;;
6642;SDS011;3357;48.050;7.800;2023-04-03T05:59:54;2.40;;;2.20;;
6642;SDS011;3357;48.050;7.800;2023-04-03T06:02:20;2.67;;;2.47;;
6642;SDS011;3357;48.050;7.800;2023-04-03T06:04:47;2.90;;;2.57;;
6642;SDS011;3357;48.050;7.800;2023-04-03T06:07:13;2.50;;;2.40;;
6642;SDS011;3357;48.050;7.800;2023-04-03T06:09:41;2.70;;;2.50;;
6642;SDS011;3357;48.050;7.800;2023-04-03T06:12:06;2.77;;;2.27;;
6642;SDS011;3357;48.050;7.800;2023-04-03T06:14:32;2.40;;;2.20;;
6642;SDS011;3357;48.050;7.800;2023-04-03T06:16:57;2.27;;;2.17;;
6642;SDS011;3357;48.050;7.800;2023-04-03T06:19:22;2.50;;;2.30;;
6642;SDS011;3357;48.050;7.800;2023-04-03T06:21:48;2.43;;;2.23;;
6642;SDS011;3357;48.050;7.800;2023-04-03T06:24:14;3.37;;;2.43;;
6642;SDS011;3357;48.050;7.800;2023-04-03T06:26:40;2.63;;;2.43;;
6642;SDS011;3357;48.050;7.800;2023-04-03T06:29:06;2.50;;;2.33;;
6642;SDS011;3357;48.050;7.800;2023-04-03T06:31:32;3.07;;;2.30;;
6642;SDS011;3357;48.050;7.800;2023-04-03T06:33:57;2.40;;;2.20;;
6642;SDS011;3357;48.050;7.800;2023-04-03T06:36:22;4.70;;;2.43;;
6642;SDS011;3357;48.050;7.800;2023-04-03T06:38:48;2.80;;;2.60;;
6642;SDS011;3357;48.050;7.800;2023-04-03T06:41:13;2.67;;;2.47;;
6642;SDS011;3357;48.050;7.800;2023-04-03T06:43:39;2.00;;;1.90;;
6642;SDS011;3357;48.050;7.800;2023-04-03T06:46:06;2.40;;;2.27;;
6642;SDS011;3357;48.050;7.800;2023-04-03T06:48:31;2.13;;;2.03;;
6642;SDS011;3357;48.050;7.800;2023-04-03T06:50:56;1.77;;;1.67;;
6642;SDS011;3357;48.050;7.800;2023-04-03T06:53:22;1.70;;;1.60;;
6642;SDS011;3357;48.050;7.800;2023-04-03T06:55:47;3.37;;;1.90;;
6642;SDS011;3357;48.050;7.800;2023-04-03T06:58:13;1.70;;;1.60;;
6642;SDS011;3357;48.050;7.800;2023-04-03T07:00:40;1.60;;;1.50;;
6642;SDS011;3357;48.050;7.800;2023-04-03T07:03:05;1.70;;;1.60;;
6642;SDS011;3357;48.050;7.800;2023-04-03T07:05:31;2.60;;;1.87;;
6642;SDS011;3357;48.050;7.800;2023-04-03T07:07:56;2.00;;;1.90;;
6642;SDS011;3357;48.050;7.800;2023-04-03T07:10:21;1.60;;;1.53;;
6642;SDS011;3357;48.050;7.800;2023-04-03T07:12:47;2.80;;;1.80;;
6642;SDS011;3357;48.050;7.800;2023-04-03T07:15:12;1.83;;;1.73;;
6642;SDS011;3357;48.050;7.800;2023-04-03T07:17:39;2.23;;;2.00;;
6642;SDS011;3357;48.050;7.800;2023-04-03T07:20:05;2.43;;;2.23;;
6642;SDS011;3357;48.050;7.800;2023-04-03T07:22:31;3.10;;;1.93;;
6642;SDS011;3357;48.050;7.800;2023-04-03T07:24:56;3.30;;;1.77;;
6642;SDS011;3357;48.050;7.800;2023-04-03T07:27:21;1.73;;;1.63;;
6642;SDS011;3357;48.050;7.800;2023-04-03T07:29:47;1.77;;;1.67;;
6642;SDS011;3357;48.050;7.800;2023-04-03T07:32:13;2.87;;;2.67;;
6642;SDS011;3357;48.050;7.800;2023-04-03T07:34:40;2.03;;;1.90;;
6642;SDS011;3357;48.050;7.800;2023-04-03T07:37:05;2.07;;;1.97;;
6642;SDS011;3357;48.050;7.800;2023-04-03T07:39:31;1.47;;;1.37;;
6642;SDS011;3357;48.050;7.800;2023-04-03T07:41:57;1.53;;;1.43;;
6642;SDS011;3357;48.050;7.800;2023-04-03T07:44:23;2.70;;;1.90;;
6642;SDS011;3357;48.050;7.800;2023-04-03T07:46:48;3.33;;;2.40;;
6642;SDS011;3357;48.050;7.800;2023-04-03T07:49:15;2.97;;;1.90;;
6642;SDS011;3357;48.050;7.800;2023-04-03T07:51:42;5.17;;;2.20;;
6642;SDS011;3357;48.050;7.800;2023-04-03T07:54:08;1.80;;;1.70;;
6642;SDS011;3357;48.050;7.800;2023-04-03T07:56:33;1.70;;;1.60;;
6642;SDS011;3357;48.050;7.800;2023-04-03T07:58:59;1.43;;;1.33;;
6642;SDS011;3357;48.050;7.800;2023-04-03T08:01:24;1.83;;;1.00;;
6642;SDS011;3357;48.050;7.800;2023-04-03T08:03:49;1.20;;;1.20;;
6642;SDS011;3357;48.050;7.800;2023-04-03T08:06:15;1.50;;;1.40;;
6642;SDS011;3357;48.050;7.800;2023-04-03T08:08:41;1.70;;;1.40;;
6642;SDS011;3357;48.050;7.800;2023-04-03T08:11:06;1.00;;;1.00;;
6642;SDS011;3357;48.050;7.800;2023-04-03T08:13:33;1.43;;;1.33;;
6642;SDS011;3357;48.050;7.800;2023-04-03T08:16:06;1.23;;;1.17;;
6642;SDS011;3357;48.050;7.800;2023-04-03T08:18:36;1.30;;;1.20;;
6642;SDS011;3357;48.050;7.800;2023-04-03T08:21:04;1.77;;;1.63;;
6642;SDS011;3357;48.050;7.800;2023-04-03T08:23:30;1.40;;;1.30;;
6642;SDS011;3357;48.050;7.800;2023-04-03T08:25:56;1.33;;;1.20;;
6642;SDS011;3357;48.050;7.800;2023-04-03T08:28:21;1.53;;;1.10;;
6642;SDS011;3357;48.050;7.800;2023-04-03T08:30:46;1.10;;;1.00;;
6642;SDS011;3357;48.050;7.800;2023-04-03T08:33:11;1.80;;;1.70;;
6642;SDS011;3357;48.050;7.800;2023-04-03T08:35:40;1.23;;;1.23;;
6642;SDS011;3357;48.050;7.800;2023-04-03T08:38:06;1.10;;;1.10;;
6642;SDS011;3357;48.050;7.800;2023-04-03T08:40:32;1.40;;;1.30;;
6642;SDS011;3357;48.050;7.800;2023-04-03T08:43:03;1.60;;;1.50;;
6642;SDS011;3357;48.050;7.800;2023-04-03T08:45:50;1.60;;;1.50;;
6642;SDS011;3357;48.050;7.800;2023-04-03T08:48:27;3.07;;;1.27;;
6642;SDS011;3357;48.050;7.800;2023-04-03T08:51:08;1.47;;;1.37;;
6642;SDS011;3357;48.050;7.800;2023-04-03T08:53:40;1.30;;;1.20;;
6642;SDS011;3357;48.050;7.800;2023-04-03T08:56:08;1.33;;;1.23;;
6642;SDS011;3357;48.050;7.800;2023-04-03T08:58:42;1.70;;;1.60;;
6642;SDS011;3357;48.050;7.800;2023-04-03T09:01:20;1.60;;;1.50;;
6642;SDS011;3357;48.050;7.800;2023-04-03T09:03:48;2.07;;;1.40;;
6642;SDS011;3357;48.050;7.800;2023-04-03T09:06:15;2.60;;;1.73;;
6642;SDS011;3357;48.050;7.800;2023-04-03T09:14:27;1.67;;;1.40;;
6642;SDS011;3357;48.050;7.800;2023-04-03T09:16:59;7.40;;;2.50;;
6642;SDS011;3357;48.050;7.800;2023-04-03T09:19:33;1.40;;;1.30;;
6642;SDS011;3357;48.050;7.800;2023-04-03T09:22:18;4.10;;;2.70;;
6642;SDS011;3357;48.050;7.800;2023-04-03T09:24:47;2.00;;;1.90;;
6642;SDS011;3357;48.050;7.800;2023-04-03T09:27:17;1.83;;;1.73;;
6642;SDS011;3357;48.050;7.800;2023-04-03T09:29:43;1.40;;;1.30;;
6642;SDS011;3357;48.050;7.800;2023-04-03T09:35:14;1.43;;;1.33;;
6642;SDS011;3357;48.050;7.800;2023-04-03T09:37:59;1.57;;;1.50;;
6642;SDS011;3357;48.050;7.800;2023-04-03T09:42:55;1.10;;;1.10;;
6642;SDS011;3357;48.050;7.800;2023-04-03T09:45:26;1.63;;;1.20;;
6642;SDS011;3357;48.050;7.800;2023-04-03T09:48:06;1.23;;;1.20;;
6642;SDS011;3357;48.050;7.800;2023-04-03T09:50:34;4.23;;;1.40;;
6642;SDS011;3357;48.050;7.800;2023-04-03T09:53:03;1.87;;;1.53;;
6642;SDS011;3357;48.050;7.800;2023-04-03T09:55:31;1.40;;;1.30;;
6642;SDS011;3357;48.050;7.800;2023-04-03T09:58:01;1.07;;;1.00;;
6642;SDS011;3357;48.050;7.800;2023-04-03T10:00:34;1.20;;;1.10;;
6642;SDS011;3357;48.050;7.800;2023-04-03T10:03:00;1.23;;;1.23;;
6642;SDS011;3357;48.050;7.800;2023-04-03T10:05:37;1.20;;;1.20;;
6642;SDS011;3357;48.050;7.800;2023-04-03T10:08:09;1.47;;;1.37;;
6642;SDS011;3357;48.050;7.800;2023-04-03T10:10:37;0.80;;;0.80;;
6642;SDS011;3357;48.050;7.800;2023-04-03T10:13:13;1.20;;;1.10;;
6642;SDS011;3357;48.050;7.800;2023-04-03T10:15:41;2.47;;;1.10;;
6642;SDS011;3357;48.050;7.800;2023-04-03T10:18:15;0.90;;;0.90;;
6642;SDS011;3357;48.050;7.800;2023-04-03T10:20:51;1.53;;;0.90;;
6642;SDS011;3357;48.050;7.800;2023-04-03T10:23:17;0.77;;;0.77;;
6642;SDS011;3357;48.050;7.800;2023-04-03T10:29:22;0.87;;;0.87;;
6642;SDS011;3357;48.050;7.800;2023-04-03T10:34:43;1.30;;;1.10;;
6642;SDS011;3357;48.050;7.800;2023-04-03T10:39:51;0.97;;;0.80;;
6642;SDS011;3357;48.050;7.800;2023-04-03T10:45:18;0.90;;;0.90;;
6642;SDS011;3357;48.050;7.800;2023-04-03T10:48:04;1.00;;;1.00;;
6642;SDS011;3357;48.050;7.800;2023-04-03T10:53:24;1.77;;;1.10;;
6642;SDS011;3357;48.050;7.800;2023-04-03T10:56:13;0.90;;;0.90;;
6642;SDS011;3357;48.050;7.800;2023-04-03T10:58:46;1.33;;;1.23;;
6642;SDS011;3357;48.050;7.800;2023-04-03T11:01:15;0.90;;;0.90;;
6642;SDS011;3357;48.050;7.800;2023-04-03T11:03:44;1.90;;;0.93;;
6642;SDS011;3357;48.050;7.800;2023-04-03T11:06:11;2.33;;;1.33;;
6642;SDS011;3357;48.050;7.800;2023-04-03T11:08:41;0.97;;;0.97;;
6642;SDS011;3357;48.050;7.800;2023-04-03T11:11:11;1.30;;;1.20;;
6642;SDS011;3357;48.050;7.800;2023-04-03T11:13:50;1.20;;;1.10;;
6642;SDS011;3357;48.050;7.800;2023-04-03T11:16:21;3.87;;;1.17;;
6642;SDS011;3357;48.050;7.800;2023-04-03T11:18:52;1.10;;;1.10;;
6642;SDS011;3357;48.050;7.800;2023-04-03T11:21:27;1.00;;;1.00;;
6642;SDS011;3357;48.050;7.800;2023-04-03T11:23:56;1.00;;;1.00;;
6642;SDS011;3357;48.050;7.800;2023-04-03T11:26:24;1.30;;;1.20;;
6642;SDS011;3357;48.050;7.800;2023-04-03T11:28:55;2.70;;;1.10;;
6642;SDS011;3357;48.050;7.800;2023-04-03T11:31:38;1.00;;;1.00;;
6642;SDS011;3357;48.050;7.800;2023-04-03T11:36:54;1.67;;;1.00;;
6642;SDS011;3357;48.050;7.800;2023-04-03T11:39:28;4.73;;;0.80;;
6642;SDS011;3357;48.050;7.800;2023-04-03T11:41:55;0.90;;;0.90;;
6642;SDS011;3357;48.050;7.800;2023-04-03T11:44:38;1.13;;;1.00;;
6642;SDS011;3357;48.050;7.800;2023-04-03T11:47:04;1.00;;;1.00;;
6642;SDS011;3357;48.050;7.800;2023-04-03T12:16:52;1.13;;;1.13;;
6642;SDS011;3357;48.050;7.800;2023-04-03T12:24:31;1.73;;;1.00;;
6642;SDS011;3357;48.050;7.800;2023-04-03T12:29:39;1.20;;;1.10;;
6642;SDS011;3357;48.050;7.800;2023-04-03T12:43:49;1.30;;;1.20;;
6642;SDS011;3357;48.050;7.800;2023-04-03T12:46:48;1.23;;;1.17;;
6642;SDS011;3357;48.050;7.800;2023-04-03T12:51:55;1.43;;;1.30;;
6642;SDS011;3357;48.050;7.800;2023-04-03T12:54:22;1.40;;;1.30;;
6642;SDS011;3357;48.050;7.800;2023-04-03T12:56:50;1.60;;;1.50;;
6642;SDS011;3357;48.050;7.800;2023-04-03T13:01:52;1.50;;;1.20;;
6642;SDS011;3357;48.050;7.800;2023-04-03T13:04:19;1.20;;;1.10;;
6642;SDS011;3357;48.050;7.800;2023-04-03T13:06:44;1.20;;;1.10;;
6642;SDS011;3357;48.050;7.800;2023-04-03T13:12:10;1.33;;;1.23;;
6642;SDS011;3357;48.050;7.800;2023-04-03T13:14:36;1.40;;;1.23;;
6642;SDS011;3357;48.050;7.800;2023-04-03T13:17:15;2.53;;;1.40;;
6642;SDS011;3357;48.050;7.800;2023-04-03T13:19:41;1.37;;;1.27;;
6642;SDS011;3357;48.050;7.800;2023-04-03T13:22:11;1.37;;;1.27;;
6642;SDS011;3357;48.050;7.800;2023-04-03T13:24:41;1.10;;;1.00;;
6642;SDS011;3357;48.050;7.800;2023-04-03T13:27:10;1.30;;;1.20;;
6642;SDS011;3357;48.050;7.800;2023-04-03T13:29:36;1.63;;;1.50;;
6642;SDS011;3357;48.050;7.800;2023-04-03T13:32:03;1.20;;;1.10;;
6642;SDS011;3357;48.050;7.800;2023-04-03T13:34:36;1.10;;;0.90;;
6642;SDS011;3357;48.050;7.800;2023-04-03T13:37:03;1.30;;;1.13;;
6642;SDS011;3357;48.050;7.800;2023-04-03T13:39:30;1.20;;;1.10;;
6642;SDS011;3357;48.050;7.800;2023-04-03T13:42:23;1.47;;;1.37;;
6642;SDS011;3357;48.050;7.800;2023-04-03T13:47:42;1.00;;;1.00;;
6642;SDS011;3357;48.050;7.800;2023-04-03T13:50:13;1.37;;;1.27;;
6642;SDS011;3357;48.050;7.800;2023-04-03T13:52:54;2.10;;;1.10;;
6642;SDS011;3357;48.050;7.800;2023-04-03T13:55:31;1.30;;;1.20;;
6642;SDS011;3357;48.050;7.800;2023-04-03T13:58:00;1.43;;;1.13;;
6642;SDS011;3357;48.050;7.800;2023-04-03T14:00:39;1.30;;;1.10;;
6642;SDS011;3357;48.050;7.800;2023-04-03T14:04:16;1.20;;;1.10;;
6642;SDS011;3357;48.050;7.800;2023-04-03T14:06:14;1.10;;;1.00;;
6642;SDS011;3357;48.050;7.800;2023-04-03T14:08:41;1.90;;;0.90;;
6642;SDS011;3357;48.050;7.800;2023-04-03T14:11:12;1.53;;;1.13;;
6642;SDS011;3357;48.050;7.800;2023-04-03T14:13:43;1.37;;;1.13;;
6642;SDS011;3357;48.050;7.800;2023-04-03T14:16:17;3.67;;;2.77;;
6642;SDS011;3357;48.050;7.800;2023-04-03T14:18:44;3.23;;;1.80;;
6642;SDS011;3357;48.050;7.800;2023-04-03T14:21:11;1.50;;;1.40;;
6642;SDS011;3357;48.050;7.800;2023-04-03T14:23:37;2.00;;;1.73;;
6642;SDS011;3357;48.050;7.800;2023-04-03T14:26:04;2.43;;;1.97;;
6642;SDS011;3357;48.050;7.800;2023-04-03T14:28:33;2.40;;;1.60;;
6642;SDS011;3357;48.050;7.800;2023-04-03T14:30:58;2.40;;;1.27;;
6642;SDS011;3357;48.050;7.800;2023-04-03T14:33:23;4.90;;;1.53;;
6642;SDS011;3357;48.050;7.800;2023-04-03T14:35:51;11.23;;;3.63;;
6642;SDS011;3357;48.050;7.800;2023-04-03T14:38:27;1.10;;;1.00;;
6642;SDS011;3357;48.050;7.800;2023-04-03T14:40:54;1.00;;;1.00;;
6642;SDS011;3357;48.050;7.800;2023-04-03T14:43:20;1.13;;;1.13;;
6642;SDS011;3357;48.050;7.800;2023-04-03T14:45:46;2.30;;;1.20;;
6642;SDS011;3357;48.050;7.800;2023-04-03T14:48:15;1.30;;;1.20;;
6642;SDS011;3357;48.050;7.800;2023-04-03T14:50:43;1.13;;;1.10;;
6642;SDS011;3357;48.050;7.800;2023-04-03T14:53:10;1.10;;;1.00;;
6642;SDS011;3357;48.050;7.800;2023-04-03T14:55:36;2.67;;;1.30;;
6642;SDS011;3357;48.050;7.800;2023-04-03T14:58:01;1.40;;;1.27;;
6642;SDS011;3357;48.050;7.800;2023-04-03T15:00:27;2.70;;;1.83;;
6642;SDS011;3357;48.050;7.800;2023-04-03T15:02:52;5.77;;;1.50;;
6642;SDS011;3357;48.050;7.800;2023-04-03T15:05:18;2.47;;;1.20;;
6642;SDS011;3357;48.050;7.800;2023-04-03T15:07:52;1.70;;;1.00;;
6642;SDS011;3357;48.050;7.800;2023-04-03T15:10:26;1.60;;;1.20;;
6642;SDS011;3357;48.050;7.800;2023-04-03T15:12:52;1.30;;;1.20;;
6642;SDS011;3357;48.050;7.800;2023-04-03T15:15:18;6.40;;;1.10;;
6642;SDS011;3357;48.050;7.800;2023-04-03T15:17:45;0.90;;;0.90;;
6642;SDS011;3357;48.050;7.800;2023-04-03T15:20:11;1.20;;;1.03;;
6642;SDS011;3357;48.050;7.800;2023-04-03T15:22:37;2.50;;;1.37;;
6642;SDS011;3357;48.050;7.800;2023-04-03T15:25:03;1.50;;;1.40;;
6642;SDS011;3357;48.050;7.800;2023-04-03T15:27:28;2.53;;;1.50;;
6642;SDS011;3357;48.050;7.800;2023-04-03T15:29:54;1.40;;;1.30;;
6642;SDS011;3357;48.050;7.800;2023-04-03T15:32:19;2.37;;;1.63;;
6642;SDS011;3357;48.050;7.800;2023-04-03T15:34:44;1.50;;;1.40;;
6642;SDS011;3357;48.050;7.800;2023-04-03T15:37:10;4.00;;;1.23;;
6642;SDS011;3357;48.050;7.800;2023-04-03T15:39:35;1.47;;;1.37;;
6642;SDS011;3357;48.050;7.800;2023-04-03T15:42:00;1.40;;;1.30;;
6642;SDS011;3357;48.050;7.800;2023-04-03T15:44:30;1.33;;;1.20;;
6642;SDS011;3357;48.050;7.800;2023-04-03T15:46:57;2.83;;;1.50;;
6642;SDS011;3357;48.050;7.800;2023-04-03T15:49:23;3.17;;;1.87;;
6642;SDS011;3357;48.050;7.800;2023-04-03T15:51:48;1.17;;;1.10;;
6642;SDS011;3357;48.050;7.800;2023-04-03T15:54:13;1.30;;;1.20;;
6642;SDS011;3357;48.050;7.800;2023-04-03T15:56:39;1.57;;;1.20;;
6642;SDS011;3357;48.050;7.800;2023-04-03T15:59:04;3.37;;;1.30;;
6642;SDS011;3357;48.050;7.800;2023-04-03T16:01:30;1.80;;;1.40;;
6642;SDS011;3357;48.050;7.800;2023-04-03T16:03:56;1.83;;;1.60;;
6642;SDS011;3357;48.050;7.800;2023-04-03T16:06:21;1.63;;;1.30;;
6642;SDS011;3357;48.050;7.800;2023-04-03T16:08:48;1.93;;;1.73;;
6642;SDS011;3357;48.050;7.800;2023-04-03T16:11:14;3.10;;;2.37;;
6642;SDS011;3357;48.050;7.800;2023-04-03T16:13:40;5.43;;;2.40;;
6642;SDS011;3357;48.050;7.800;2023-04-03T16:16:05;2.53;;;2.17;;
6642;SDS011;3357;48.050;7.800;2023-04-03T16:18:31;3.23;;;1.43;;
6642;SDS011;3357;48.050;7.800;2023-04-03T16:20:56;8.83;;;2.90;;
6642;SDS011;3357;48.050;7.800;2023-04-03T16:23:22;3.87;;;1.80;;
6642;SDS011;3357;48.050;7.800;2023-04-03T16:25:48;1.50;;;1.40;;
6642;SDS011;3357;48.050;7.800;2023-04-03T16:28:15;2.80;;;1.40;;
6642;SDS011;3357;48.050;7.800;2023-04-03T16:30:42;2.03;;;1.50;;
6642;SDS011;3357;48.050;7.800;2023-04-03T16:33:09;1.20;;;1.10;;
6642;SDS011;3357;48.050;7.800;2023-04-03T16:35:34;1.37;;;1.07;;
6642;SDS011;3357;48.050;7.800;2023-04-03T16:38:00;3.43;;;2.03;;
6642;SDS011;3357;48.050;7.800;2023-04-03T16:40:25;1.23;;;1.10;;
6642;SDS011;3357;48.050;7.800;2023-04-03T16:42:50;1.60;;;1.10;;
6642;SDS011;3357;48.050;7.800;2023-04-03T16:45:16;1.10;;;1.00;;
6642;SDS011;3357;48.050;7.800;2023-04-03T16:47:41;1.10;;;1.10;;
6642;SDS011;3357;48.050;7.800;2023-04-03T16:50:06;1.33;;;1.23;;
6642;SDS011;3357;48.050;7.800;2023-04-03T16:52:32;0.90;;;0.90;;
6642;SDS011;3357;48.050;7.800;2023-04-03T16:54:57;1.80;;;1.17;;